Allport, Arkansas
Current Conditions -  °F | °C
As of 4:15 PM on Sunday 23 Nov 2014 (Local Time) from KSGT Reporting Station
Overcast Overcast  
Wind Chill: 63°   Ceiling: 2200
Heat Index: 63°   Visibility: 10mi
Dew Point: 59°   Wind: 9mph
Humidity: 88%   Direction: 190°S
Pressure: 29.39"   Gusts: NA
Location:  34.5894°N, 91.9107°W
Report Text: KSGT 232215Z AUTO 19008KT 10SM OVC022 17/15 A2939 RMK AO1
Loading
Personal Weather Stations






























Interactive Weather Map New forecast layout! Learn more

10-Day Weather Forecast

Advertisements
Track Severe Weather on mobile